Time;durP1;ratioP1;P1;durP2;ratioP2;P2;SDS_P1;SDS_P2;PMS_P1;PMS_P2;Temp;Humidity;BMP_temperature;BMP_pressure;BME280_temperature;BME280_humidity;BME280_pressure;Samples;Min_cycle;Max_cycle;Signal;HPM_P1;HPM_P2
2023/04/11 00:01:34;;;;;;;;;1.67;0.33;;;;;12.98;100.00;101297.84;5034879;28;47581;-71
2023/04/11 00:04:00;;;;;;;;;0.67;0.00;;;;;12.97;100.00;101318.16;5034703;28;45377;-70
2023/04/11 00:06:26;;;;;;;;;0.00;0.00;;;;;12.95;100.00;101322.56;5034076;28;45467;-71
2023/04/11 00:08:51;;;;;;;;;1.00;1.00;;;;;12.92;100.00;101308.38;5034502;28;45282;-71
2023/04/11 00:11:17;;;;;;;;;1.67;1.00;;;;;12.93;100.00;101303.09;5031459;28;45332;-71
2023/04/11 00:13:44;;;;;;;;;0.00;0.00;;;;;12.94;100.00;101307.50;5034664;28;45414;-71
2023/04/11 00:16:09;;;;;;;;;1.00;1.00;;;;;12.92;100.00;101309.28;5034669;28;45330;-71
2023/04/11 00:18:36;;;;;;;;;1.00;0.00;;;;;12.92;100.00;101321.66;5035357;28;45561;-71
2023/04/11 00:21:07;;;;;;;;;1.00;1.00;;;;;12.90;100.00;101321.63;5035332;28;46347;-71
2023/04/11 00:23:32;;;;;;;;;0.00;0.00;;;;;12.84;100.00;101310.97;5016263;28;45475;-71
2023/04/11 00:25:57;;;;;;;;;3.33;0.00;;;;;12.84;100.00;101319.81;5035198;28;59413;-71
2023/04/11 00:28:23;;;;;;;;;0.00;0.00;;;;;12.79;100.00;101299.44;5039170;28;45481;-71
2023/04/11 00:30:48;;;;;;;;;3.00;0.00;;;;;12.77;100.00;101307.38;5020819;28;48819;-70
2023/04/11 00:33:15;;;;;;;;;0.00;0.00;;;;;12.77;100.00;101315.31;5037781;28;45300;-71
2023/04/11 00:35:40;;;;;;;;;0.00;0.00;;;;;12.76;100.00;101307.34;5035188;28;45824;-71
2023/04/11 00:38:06;;;;;;;;;0.00;0.00;;;;;12.74;100.00;101317.94;5036162;28;63377;-70
2023/04/11 00:40:31;;;;;;;;;0.33;0.00;;;;;12.74;100.00;101325.00;5038665;28;46528;-71
2023/04/11 00:42:56;;;;;;;;;1.00;0.00;;;;;12.69;100.00;101324.06;5021809;28;64142;-70
2023/04/11 00:45:22;;;;;;;;;1.00;0.33;;;;;12.68;100.00;101328.50;5037978;28;45476;-71
2023/04/11 00:47:48;;;;;;;;;2.00;2.00;;;;;12.63;100.00;101314.31;5037561;28;62588;-71
2023/04/11 00:50:14;;;;;;;;;1.00;1.00;;;;;12.63;100.00;101327.56;5035839;28;46369;-71
2023/04/11 00:52:41;;;;;;;;;1.33;0.00;;;;;12.60;100.00;101327.50;5038204;28;45309;-71
2023/04/11 00:55:08;;;;;;;;;0.67;0.00;;;;;12.57;100.00;101331.03;5037890;28;45295;-71
2023/04/11 00:57:34;;;;;;;;;0.00;0.00;;;;;12.57;100.00;101325.72;5038334;28;45615;-71
2023/04/11 01:00:00;;;;;;;;;3.00;0.67;;;;;12.53;100.00;101318.63;5038299;28;47176;-71
2023/04/11 01:02:25;;;;;;;;;1.00;0.00;;;;;12.52;100.00;101324.78;5038125;28;45322;-71
2023/04/11 01:04:51;;;;;;;;;4.67;0.00;;;;;12.51;100.00;101319.47;5037989;28;59886;-71
2023/04/11 01:07:19;;;;;;;;;0.67;0.00;;;;;12.48;100.00;101311.50;5032865;28;63602;-71
2023/04/11 01:09:45;;;;;;;;;0.00;0.00;;;;;12.47;100.00;101323.84;5017871;28;46750;-70
2023/04/11 01:12:11;;;;;;;;;3.00;1.00;;;;;12.48;100.00;101314.13;5016641;28;45471;-71
2023/04/11 01:14:37;;;;;;;;;2.33;0.00;;;;;12.46;100.00;101326.47;5010381;28;45471;-71
2023/04/11 01:17:02;;;;;;;;;1.67;0.00;;;;;12.47;100.00;101333.56;5036432;28;63917;-71
2023/04/11 01:19:28;;;;;;;;;4.00;1.00;;;;;12.46;100.00;101343.25;5037574;28;54053;-71
2023/04/11 01:21:55;;;;;;;;;3.00;0.00;;;;;12.46;100.00;101343.25;5020027;28;45380;-71
2023/04/11 01:24:20;;;;;;;;;2.00;1.00;;;;;12.47;100.00;101347.69;5032246;28;45361;-70
2023/04/11 01:26:46;;;;;;;;;0.67;0.00;;;;;12.47;100.00;101342.41;5036903;28;45356;-71
2023/04/11 01:29:11;;;;;;;;;0.67;0.00;;;;;12.49;100.00;101330.03;5037040;28;54876;-71
2023/04/11 01:31:37;;;;;;;;;2.00;1.00;;;;;12.49;100.00;101330.03;5035268;28;63296;-71
2023/04/11 01:34:03;;;;;;;;;2.00;0.00;;;;;12.46;100.00;101330.00;5037147;28;54960;-71
2023/04/11 01:36:29;;;;;;;;;0.00;0.00;;;;;12.45;100.00;101338.81;5019491;28;45573;-71
2023/04/11 01:38:55;;;;;;;;;1.33;0.00;;;;;12.44;100.00;101344.09;5036627;28;47337;-71
2023/04/11 01:41:21;;;;;;;;;0.67;0.67;;;;;12.45;100.00;101340.59;5036794;28;68826;-71
2023/04/11 01:43:47;;;;;;;;;2.33;0.33;;;;;12.46;100.00;101348.53;5037057;28;45509;-70
2023/04/11 01:46:12;;;;;;;;;0.00;0.00;;;;;12.45;100.00;101354.72;5037531;28;45435;-70
2023/04/11 01:48:38;;;;;;;;;2.00;0.00;;;;;12.44;100.00;101349.41;5037432;28;46432;-71
2023/04/11 01:51:03;;;;;;;;;0.00;0.00;;;;;12.42;100.00;101348.50;5036511;28;68440;-71
2023/04/11 01:53:29;;;;;;;;;1.33;1.00;;;;;12.39;100.00;101365.22;5037712;28;45454;-70
2023/04/11 01:55:54;;;;;;;;;2.00;0.00;;;;;12.36;100.00;101374.88;5036569;28;59689;-70
2023/04/11 01:58:20;;;;;;;;;1.67;0.00;;;;;12.30;100.00;101366.03;5037875;28;46242;-70
2023/04/11 02:00:45;;;;;;;;;1.67;0.00;;;;;12.26;100.00;101369.50;5036492;28;63601;-71
2023/04/11 02:03:10;;;;;;;;;4.00;1.00;;;;;12.26;100.00;101373.91;5037092;28;45511;-70
2023/04/11 02:05:36;;;;;;;;;1.00;0.00;;;;;12.26;100.00;101379.22;5037560;28;45526;-71
2023/04/11 02:08:01;;;;;;;;;3.00;0.00;;;;;12.26;100.00;101389.78;5019382;28;46253;-70
2023/04/11 02:10:27;;;;;;;;;1.00;0.00;;;;;12.24;100.00;101391.50;5036877;28;52154;-70
2023/04/11 02:12:52;;;;;;;;;0.00;0.00;;;;;12.28;100.00;101382.75;5036697;28;45271;-71
2023/04/11 02:15:18;;;;;;;;;2.33;0.00;;;;;12.29;100.00;101392.47;5018878;28;45666;-70
2023/04/11 02:17:43;;;;;;;;;1.67;0.67;;;;;12.24;100.00;101373.88;5036373;28;71929;-70
2023/04/11 02:20:10;;;;;;;;;0.00;0.00;;;;;12.25;100.00;101393.28;5036328;28;45347;-71
2023/04/11 02:22:35;;;;;;;;;4.00;0.00;;;;;12.26;100.00;101400.38;5036999;28;45479;-71
2023/04/11 02:25:01;;;;;;;;;5.00;0.00;;;;;12.24;100.00;101383.56;5036463;28;46075;-72
2023/04/11 02:27:26;;;;;;;;;0.00;0.00;;;;;12.25;100.00;101373.03;5037377;28;46341;-70
2023/04/11 02:29:51;;;;;;;;;1.33;0.00;;;;;12.28;100.00;101383.63;5034918;28;69057;-70
2023/04/11 02:32:17;;;;;;;;;2.67;0.00;;;;;12.28;100.00;101393.34;5043216;28;57191;-71
2023/04/11 02:34:42;;;;;;;;;0.33;0.33;;;;;12.30;100.00;101399.53;5036373;28;54007;-71
2023/04/11 02:37:07;;;;;;;;;1.33;0.00;;;;;12.25;100.00;101391.56;5035737;28;69778;-70
2023/04/11 02:39:33;;;;;;;;;0.00;0.00;;;;;12.25;100.00;101396.84;5035768;28;68908;-71
2023/04/11 02:41:58;;;;;;;;;0.00;0.00;;;;;12.18;100.00;101383.50;5035399;28;62805;-71
2023/04/11 02:44:25;;;;;;;;;0.33;0.00;;;;;12.18;100.00;101397.63;5036458;28;63662;-70
2023/04/11 02:46:50;;;;;;;;;2.00;0.00;;;;;12.20;100.00;101395.91;5032013;28;46456;-71
2023/04/11 02:49:15;;;;;;;;;2.00;1.00;;;;;12.17;100.00;101387.03;5035248;28;66789;-71
2023/04/11 02:51:41;;;;;;;;;0.67;0.67;;;;;12.21;100.00;101394.16;5036078;28;64584;-70
2023/04/11 02:54:06;;;;;;;;;0.00;0.00;;;;;12.19;100.00;101394.09;5035062;28;61492;-71
2023/04/11 02:56:33;;;;;;;;;0.00;0.00;;;;;12.15;100.00;101391.41;5036294;28;51578;-71
2023/04/11 02:58:59;;;;;;;;;0.00;0.00;;;;;12.12;100.00;101396.66;5035787;28;45358;-70
2023/04/11 03:01:25;;;;;;;;;4.00;1.33;;;;;12.10;100.00;101401.94;5037005;28;45569;-71
2023/04/11 03:03:50;;;;;;;;;1.33;0.00;;;;;12.11;100.00;101409.00;5018537;28;45256;-71
2023/04/11 03:06:15;;;;;;;;;0.33;0.00;;;;;12.09;100.00;101404.53;5036230;28;46485;-70
2023/04/11 03:08:41;;;;;;;;;5.00;0.00;;;;;12.09;100.00;101410.75;5035569;28;45506;-71
2023/04/11 03:11:06;;;;;;;;;1.00;0.00;;;;;12.07;100.00;101420.41;5036511;28;46001;-71
2023/04/11 03:13:32;;;;;;;;;0.67;0.00;;;;;12.02;100.00;101411.50;5036404;28;45481;-71
2023/04/11 03:15:57;;;;;;;;;0.00;0.00;;;;;12.05;100.00;101415.09;5035371;28;45887;-70
2023/04/11 03:18:23;;;;;;;;;0.67;0.00;;;;;12.05;100.00;101422.16;5036048;28;45419;-70
2023/04/11 03:20:49;;;;;;;;;0.00;0.00;;;;;12.04;100.00;101431.88;5035395;28;45342;-70
2023/04/11 03:23:14;;;;;;;;;1.00;0.00;;;;;12.02;100.00;101414.16;5036292;28;45324;-70
2023/04/11 03:25:40;;;;;;;;;3.00;1.33;;;;;12.05;100.00;101420.41;5035439;28;63564;-71
2023/04/11 03:28:05;;;;;;;;;3.33;0.00;;;;;12.04;100.00;101423.03;5035516;28;45400;-70
2023/04/11 03:30:31;;;;;;;;;2.00;0.67;;;;;12.04;100.00;101421.28;5038449;28;45486;-71
2023/04/11 03:32:59;;;;;;;;;2.00;0.00;;;;;12.05;100.00;101415.09;5035451;28;45319;-70
2023/04/11 03:35:28;;;;;;;;;0.00;0.00;;;;;12.03;100.00;101423.88;5032271;28;48000;-71
2023/04/11 03:37:53;;;;;;;;;2.33;0.00;;;;;12.01;100.00;101426.50;5035958;28;45538;-70
2023/04/11 03:40:18;;;;;;;;;1.67;0.33;;;;;12.00;100.00;101424.72;5035188;28;45453;-70
2023/04/11 03:42:47;;;;;;;;;2.00;0.00;;;;;11.99;100.00;101419.44;5035330;28;47024;-71
2023/04/11 03:45:12;;;;;;;;;1.00;1.00;;;;;11.97;100.00;101424.69;5035567;28;45646;-71
2023/04/11 03:47:39;;;;;;;;;1.00;0.00;;;;;11.98;100.00;101422.91;5034186;28;68048;-70
2023/04/11 03:50:05;;;;;;;;;4.00;1.00;;;;;11.96;100.00;101429.94;5029518;28;45208;-70
2023/04/11 03:52:31;;;;;;;;;0.67;0.67;;;;;11.93;100.00;101428.16;5035609;28;45514;-70
2023/04/11 03:54:56;;;;;;;;;0.00;0.00;;;;;11.97;100.00;101429.09;5033956;28;73435;-70
2023/04/11 03:57:21;;;;;;;;;1.00;0.00;;;;;11.97;100.00;101434.38;5034263;28;68367;-71
2023/04/11 03:59:47;;;;;;;;;2.00;0.00;;;;;11.94;100.00;101424.66;5043122;28;45542;-70
2023/04/11 04:02:14;;;;;;;;;2.33;0.00;;;;;11.95;100.00;101431.72;5037495;28;45565;-70
2023/04/11 04:04:42;;;;;;;;;0.00;0.00;;;;;11.93;100.00;101438.75;5039201;28;45786;-71
2023/04/11 04:07:08;;;;;;;;;3.67;1.00;;;;;11.88;100.00;101432.50;5038430;28;45304;-71
2023/04/11 04:09:34;;;;;;;;;3.00;0.00;;;;;11.89;100.00;101430.75;5038698;28;45442;-70
2023/04/11 04:12:00;;;;;;;;;3.00;0.67;;;;;11.92;100.00;101436.06;5039289;28;45239;-70
2023/04/11 04:14:25;;;;;;;;;0.00;0.00;;;;;11.93;100.00;101435.19;5038479;28;46577;-71
2023/04/11 04:16:51;;;;;;;;;2.00;0.00;;;;;11.92;100.00;101436.94;5037257;28;65035;-70
2023/04/11 04:19:16;;;;;;;;;0.00;0.00;;;;;11.88;100.00;101429.84;5037753;28;64040;-71
2023/04/11 04:21:42;;;;;;;;;1.00;0.00;;;;;11.88;100.00;101428.94;5038588;28;49081;-70
2023/04/11 04:24:07;;;;;;;;;1.00;1.00;;;;;11.89;100.00;101434.28;5038841;28;45763;-70
2023/04/11 04:26:32;;;;;;;;;1.33;0.00;;;;;11.87;100.00;101429.81;5037556;28;67050;-71
2023/04/11 04:29:03;;;;;;;;;1.00;0.00;;;;;11.86;100.00;101426.28;5037820;28;64103;-71
2023/04/11 04:31:35;;;;;;;;;3.00;1.00;;;;;11.86;100.00;101431.56;5038581;28;45339;-70
2023/04/11 04:34:09;;;;;;;;;1.67;0.33;;;;;11.86;100.00;101439.50;5038678;28;46723;-70
2023/04/11 04:36:47;;;;;;;;;0.00;0.00;;;;;11.84;100.00;101429.78;5036030;28;45612;-71
2023/04/11 04:39:16;;;;;;;;;0.00;0.00;;;;;11.86;100.00;101430.69;5037823;28;45525;-71
2023/04/11 04:41:47;;;;;;;;;0.00;0.00;;;;;11.84;100.00;101429.78;5036742;28;45538;-70
2023/04/11 04:44:14;;;;;;;;;2.00;0.67;;;;;11.85;100.00;101434.19;5037059;28;45881;-71
2023/04/11 04:46:40;;;;;;;;;0.00;0.00;;;;;11.81;100.00;101427.94;5037277;28;45466;-71
2023/04/11 04:49:06;;;;;;;;;0.67;0.67;;;;;11.84;100.00;101438.59;5036920;28;45337;-71
2023/04/11 04:51:32;;;;;;;;;2.00;1.00;;;;;11.82;100.00;101437.66;5016524;28;45793;-71
2023/04/11 04:53:58;;;;;;;;;0.00;0.00;;;;;11.79;100.00;101438.50;5037276;28;45716;-71
2023/04/11 04:56:25;;;;;;;;;0.67;0.00;;;;;11.79;100.00;101441.13;5037935;28;45455;-70
2023/04/11 04:58:50;;;;;;;;;0.00;0.00;;;;;11.75;100.00;101439.31;5037354;28;45495;-71
2023/04/11 05:01:16;;;;;;;;;8.33;1.00;;;;;11.78;100.00;101455.25;5037820;28;53716;-71
2023/04/11 05:03:43;;;;;;;;;2.00;0.00;;;;;11.76;100.00;101458.72;5037049;28;45805;-70
2023/04/11 05:06:08;;;;;;;;;2.00;0.00;;;;;11.78;100.00;101454.34;5036403;28;45548;-71
2023/04/11 05:08:34;;;;;;;;;3.00;0.00;;;;;11.80;100.00;101461.44;5031654;28;65738;-71
2023/04/11 05:10:59;;;;;;;;;3.00;0.00;;;;;11.81;100.00;101464.97;5036725;28;54099;-71
2023/04/11 05:13:24;;;;;;;;;1.33;1.00;;;;;11.79;100.00;101459.66;5016930;28;59037;-71
2023/04/11 05:15:50;;;;;;;;;3.00;0.00;;;;;11.79;100.00;101451.72;5035018;28;71046;-71
2023/04/11 05:18:15;;;;;;;;;1.00;1.00;;;;;11.81;100.00;101457.03;5037322;28;45566;-71
2023/04/11 05:20:40;;;;;;;;;1.00;1.00;;;;;11.83;100.00;101473.00;5035672;28;53098;-73
2023/04/11 05:23:06;;;;;;;;;0.33;0.33;;;;;11.82;100.00;101476.47;5036067;28;45694;-72
2023/04/11 05:25:31;;;;;;;;;3.67;1.00;;;;;11.84;100.00;101472.13;5035669;28;68732;-72
2023/04/11 05:27:56;;;;;;;;;0.67;0.00;;;;;11.83;100.00;101484.47;5036838;28;60622;-73
2023/04/11 05:30:22;;;;;;;;;2.00;0.00;;;;;11.80;100.00;101472.03;5036979;28;47502;-72
2023/04/11 05:32:47;;;;;;;;;0.00;0.00;;;;;11.82;100.00;101477.34;5033069;28;49858;-72
2023/04/11 05:35:12;;;;;;;;;3.00;2.00;;;;;11.85;100.00;101476.53;5035298;28;67262;-72
2023/04/11 05:37:38;;;;;;;;;0.00;0.00;;;;;11.87;100.00;101477.44;5038105;28;45370;-71
2023/04/11 05:40:07;;;;;;;;;0.00;0.00;;;;;11.88;100.00;101482.78;5017001;28;45460;-72
2023/04/11 05:42:32;;;;;;;;;5.00;0.67;;;;;11.90;100.00;101488.09;5035872;28;46658;-73
2023/04/11 05:44:57;;;;;;;;;3.00;0.00;;;;;11.88;100.00;101477.50;5035387;28;67050;-72
2023/04/11 05:47:23;;;;;;;;;0.00;0.00;;;;;11.87;100.00;101483.63;5015335;28;63100;-71
2023/04/11 05:49:49;;;;;;;;;1.33;1.00;;;;;11.90;100.00;101475.75;5035539;28;62807;-71
2023/04/11 05:52:15;;;;;;;;;2.00;1.00;;;;;11.93;100.00;101477.53;5033387;28;45702;-72
2023/04/11 05:54:41;;;;;;;;;0.33;0.33;;;;;11.88;100.00;101469.53;5035774;28;45417;-71
2023/04/11 05:57:06;;;;;;;;;3.00;0.00;;;;;11.88;100.00;101477.50;5036012;28;45758;-71
2023/04/11 05:59:33;;;;;;;;;1.00;1.00;;;;;11.90;100.00;101474.84;5030658;28;45657;-72
2023/04/11 06:01:59;;;;;;;;;3.67;1.00;;;;;11.90;100.00;101474.84;5036022;28;46549;-70
2023/04/11 06:04:24;;;;;;;;;2.33;1.00;;;;;11.96;100.00;101475.84;5036139;28;45541;-71
2023/04/11 06:06:51;;;;;;;;;3.33;1.00;;;;;12.02;100.00;101475.03;5035383;28;45457;-72
2023/04/11 06:09:16;;;;;;;;;1.33;0.00;;;;;12.01;100.00;101474.16;5035754;28;45628;-73
2023/04/11 06:11:42;;;;;;;;;0.00;0.00;;;;;11.92;100.00;101487.22;5031442;28;45849;-74
2023/04/11 06:14:07;;;;;;;;;1.33;0.00;;;;;11.80;100.00;101484.34;5036893;28;45483;-73
2023/04/11 06:16:35;;;;;;;;;1.00;0.00;;;;;11.73;100.00;101493.06;5034970;28;64016;-74
2023/04/11 06:19:00;;;;;;;;;5.67;1.00;;;;;11.72;100.00;101493.94;5019656;28;45339;-74
2023/04/11 06:21:26;;;;;;;;;0.67;0.00;;;;;11.68;100.00;101500.94;5035643;28;46668;-74
2023/04/11 06:23:52;;;;;;;;;0.00;0.00;;;;;11.66;100.00;101493.81;5030290;28;45418;-75
2023/04/11 06:26:17;;;;;;;;;3.00;0.00;;;;;11.64;100.00;101496.44;5032905;28;59250;-74
2023/04/11 06:28:42;;;;;;;;;2.00;1.00;;;;;11.70;100.00;101495.66;5033644;28;49736;-74
2023/04/11 06:31:08;;;;;;;;;1.67;1.00;;;;;11.71;100.00;101500.06;5034649;28;71112;-74
2023/04/11 06:33:33;;;;;;;;;3.00;1.67;;;;;11.71;100.00;101514.19;5035043;28;66169;-74
2023/04/11 06:35:59;;;;;;;;;0.67;0.67;;;;;11.72;100.00;101528.34;5018472;28;45328;-74
2023/04/11 06:38:24;;;;;;;;;1.67;1.00;;;;;11.73;100.00;101516.88;5035960;28;45426;-75
2023/04/11 06:40:51;;;;;;;;;2.33;0.67;;;;;11.76;100.00;101504.56;5036106;28;46365;-77
2023/04/11 06:43:16;;;;;;;;;1.67;1.67;;;;;11.80;100.00;101508.19;5029424;28;45367;-72
2023/04/11 06:45:41;;;;;;;;;1.00;1.00;;;;;11.86;100.00;101516.25;5036164;28;45501;-71
2023/04/11 06:48:07;;;;;;;;;1.00;0.00;;;;;11.94;100.00;101532.25;5036209;28;45288;-72
2023/04/11 06:50:36;;;;;;;;;2.33;1.00;;;;;12.00;100.00;101521.78;5035395;28;46875;-72
2023/04/11 06:53:01;;;;;;;;;4.67;0.00;;;;;12.10;100.00;101528.13;5032583;28;45411;-71
2023/04/11 06:55:27;;;;;;;;;2.00;1.00;;;;;12.12;100.00;101529.00;5030925;28;45550;-72
2023/04/11 06:57:53;;;;;;;;;1.00;1.00;;;;;12.14;100.00;101530.81;5031601;28;55021;-73
2023/04/11 07:00:19;;;;;;;;;2.67;1.00;;;;;12.20;100.00;101524.75;5033088;28;60983;-72
2023/04/11 07:02:44;;;;;;;;;2.00;0.00;;;;;12.24;100.00;101538.03;5034193;28;45450;-72
2023/04/11 07:05:09;;;;;;;;;1.33;0.67;;;;;12.28;100.00;101526.63;5032721;28;45874;-73
2023/04/11 07:07:35;;;;;;;;;0.00;0.00;;;;;12.35;100.00;101537.31;5033601;28;45520;-72
2023/04/11 07:10:01;;;;;;;;;1.00;0.00;;;;;12.42;100.00;101532.13;5035155;28;46765;-73
2023/04/11 07:12:26;;;;;;;;;4.00;1.00;;;;;12.48;100.00;101544.56;5033812;28;63145;-72
2023/04/11 07:14:51;;;;;;;;;0.33;0.00;;;;;12.53;100.00;101538.47;5033809;28;45424;-73
2023/04/11 07:17:17;;;;;;;;;3.33;0.33;;;;;12.59;100.00;101535.91;5035034;28;45416;-73
2023/04/11 07:19:42;;;;;;;;;3.33;1.00;;;;;12.66;100.00;101543.94;5034192;28;65130;-72
2023/04/11 07:22:07;;;;;;;;;3.67;2.00;;;;;12.67;100.00;101535.13;5033032;28;67276;-72
2023/04/11 07:24:33;;;;;;;;;2.00;0.00;;;;;12.71;100.00;101536.94;5033031;28;48755;-71
2023/04/11 07:27:00;;;;;;;;;2.33;1.00;;;;;12.74;100.00;101531.69;5033570;28;63330;-72
2023/04/11 07:29:25;;;;;;;;;2.00;1.00;;;;;12.71;100.00;101532.53;5031552;28;46587;-72
2023/04/11 07:31:51;;;;;;;;;2.00;0.00;;;;;12.75;100.00;101530.81;5035354;28;45193;-72
2023/04/11 07:34:17;;;;;;;;;1.33;0.00;;;;;12.76;100.00;101530.84;5017130;28;45310;-72
2023/04/11 07:36:42;;;;;;;;;1.00;1.00;;;;;12.80;100.00;101531.78;5028774;28;45406;-73
2023/04/11 07:39:11;;;;;;;;;2.00;1.00;;;;;12.82;100.00;101532.66;5035363;28;45710;-72
2023/04/11 07:41:36;;;;;;;;;2.00;0.67;;;;;12.81;100.00;101536.19;5034358;28;45804;-73
2023/04/11 07:44:05;;;;;;;;;0.00;0.00;;;;;12.81;100.00;101537.09;5034400;28;45454;-72
2023/04/11 07:46:30;;;;;;;;;1.33;1.00;;;;;12.89;100.00;101536.28;5034686;28;45477;-72
2023/04/11 07:48:55;;;;;;;;;3.33;0.00;;;;;12.91;100.00;101529.25;5033951;28;56204;-73
2023/04/11 07:51:21;;;;;;;;;7.33;1.00;;;;;12.98;100.00;101534.66;5032806;28;58607;-73
2023/04/11 07:53:46;;;;;;;;;7.33;1.00;;;;;13.03;100.00;101518.81;5033555;28;45435;-72
2023/04/11 07:56:13;;;;;;;;;3.67;0.67;;;;;13.05;100.00;101514.44;5032940;28;60822;-72
2023/04/11 07:58:38;;;;;;;;;4.67;1.33;;;;;13.15;100.00;101526.00;5030051;28;46397;-72
2023/04/11 08:01:04;;;;;;;;;2.00;0.00;;;;;13.21;100.00;101518.13;5033277;28;66897;-72
2023/04/11 08:03:30;;;;;;;;;0.33;0.00;;;;;13.28;100.00;101523.56;5033842;28;45593;-72
2023/04/11 08:05:55;;;;;;;;;4.00;1.67;;;;;13.40;100.00;101535.16;5016445;28;45597;-74
2023/04/11 08:08:21;;;;;;;;;0.00;0.00;;;;;13.46;100.00;101533.47;5032882;28;48709;-72
2023/04/11 08:10:46;;;;;;;;;0.67;0.00;;;;;13.50;100.00;101545.88;5033083;28;65533;-73
2023/04/11 08:13:11;;;;;;;;;1.67;0.00;;;;;13.48;100.00;101534.38;5032626;28;63917;-73
2023/04/11 08:15:37;;;;;;;;;2.67;1.00;;;;;13.53;100.00;101553.91;5033509;28;54947;-73
2023/04/11 08:18:04;;;;;;;;;4.67;1.00;;;;;13.55;100.00;101552.13;5033366;28;46692;-73
2023/04/11 08:20:29;;;;;;;;;0.00;0.00;;;;;13.55;100.00;101548.59;5016398;28;45672;-73
2023/04/11 08:22:54;;;;;;;;;1.00;0.00;;;;;13.63;100.00;101550.47;5033991;28;45422;-74
2023/04/11 08:25:21;;;;;;;;;1.00;1.00;;;;;13.68;100.00;101536.31;5032629;28;57330;-73
2023/04/11 08:27:47;;;;;;;;;1.00;1.00;;;;;13.77;100.00;101528.47;5033400;28;47337;-74
2023/04/11 08:30:13;;;;;;;;;0.00;0.00;;;;;13.83;100.00;101547.97;5033217;28;45431;-75
2023/04/11 08:32:39;;;;;;;;;1.00;1.00;;;;;13.90;100.00;101535.63;5033360;28;45530;-75
2023/04/11 08:35:05;;;;;;;;;0.00;0.00;;;;;13.99;100.00;101540.16;5031978;28;45552;-75
2023/04/11 08:37:30;;;;;;;;;2.00;1.00;;;;;14.02;100.00;101541.06;5034023;28;46154;-74
2023/04/11 08:39:56;;;;;;;;;3.00;1.00;;;;;14.06;100.00;101549.94;5033525;28;45450;-75
2023/04/11 08:42:25;;;;;;;;;5.00;0.00;;;;;14.06;100.00;101539.31;5033863;28;45459;-74
2023/04/11 08:44:57;;;;;;;;;2.67;2.00;;;;;14.13;100.00;101544.69;5034417;28;45462;-75
2023/04/11 08:47:23;;;;;;;;;2.33;1.00;;;;;14.16;100.00;101547.34;5033438;28;46408;-75
2023/04/11 08:49:49;;;;;;;;;2.67;1.00;;;;;14.24;100.00;101547.44;5036902;28;46751;-76
2023/04/11 08:52:15;;;;;;;;;5.00;1.00;;;;;14.25;100.00;101543.00;5034666;28;45534;-74
2023/04/11 08:54:40;;;;;;;;;1.00;0.67;;;;;14.30;100.00;101560.75;5035666;28;46951;-74
2023/04/11 08:57:06;;;;;;;;;2.00;1.00;;;;;14.31;100.00;101557.22;5035494;28;45547;-74
2023/04/11 08:59:34;;;;;;;;;4.67;1.00;;;;;14.37;100.00;101567.00;5035090;28;58820;-74
2023/04/11 09:02:09;;;;;;;;;2.00;0.00;;;;;14.45;100.00;101564.41;5036110;28;45514;-74
2023/04/11 09:04:42;;;;;;;;;2.33;2.33;;;;;14.48;100.00;101552.06;5034908;28;45598;-73
2023/04/11 09:07:08;;;;;;;;;3.00;0.00;;;;;14.46;100.00;101545.81;5036189;28;45662;-74
2023/04/11 09:09:36;;;;;;;;;1.67;1.67;;;;;14.49;100.00;101551.19;5036278;28;45474;-75
2023/04/11 09:12:03;;;;;;;;;3.67;0.67;;;;;14.54;100.00;101554.78;5036901;28;45389;-74
2023/04/11 09:14:29;;;;;;;;;3.00;1.00;;;;;14.56;100.00;101549.47;5037239;28;45771;-74
2023/04/11 09:16:55;;;;;;;;;1.33;0.33;;;;;14.62;100.00;101546.84;5035835;28;45433;-74
2023/04/11 09:19:28;;;;;;;;;2.67;2.00;;;;;14.68;100.00;101547.75;5036167;28;45276;-74
2023/04/11 09:21:56;;;;;;;;;1.00;0.00;;;;;14.71;100.00;101540.69;5036577;28;45533;-74
2023/04/11 09:24:22;;;;;;;;;1.00;0.33;;;;;14.77;100.00;101538.94;5036277;28;45606;-75
2023/04/11 09:26:47;;;;;;;;;3.33;0.33;;;;;14.87;100.00;101548.75;5037041;28;45647;-74
2023/04/11 09:29:34;;;;;;;;;2.33;0.00;;;;;14.87;100.00;101543.44;5035409;28;45386;-74
2023/04/11 09:32:00;;;;;;;;;3.33;1.00;;;;;14.88;100.00;101542.53;5036369;28;45539;-75
2023/04/11 09:34:28;;;;;;;;;0.67;0.00;;;;;14.87;100.00;101547.88;5035983;28;58757;-73
2023/04/11 09:36:54;;;;;;;;;4.33;1.00;;;;;14.86;100.00;101556.69;5036085;28;46796;-73
2023/04/11 09:39:20;;;;;;;;;3.00;1.00;;;;;14.87;100.00;101551.41;5036568;28;45502;-72
2023/04/11 09:41:45;;;;;;;;;1.00;1.00;;;;;14.92;100.00;101546.13;5034969;28;45319;-72
2023/04/11 09:44:11;;;;;;;;;1.67;1.00;;;;;14.97;100.00;101549.69;5035073;28;58656;-72
2023/04/11 09:46:54;;;;;;;;;4.67;1.00;;;;;14.96;100.00;101531.03;5033829;28;46472;-73
2023/04/11 09:49:21;;;;;;;;;1.00;0.00;;;;;15.04;100.00;101550.59;5034199;28;45447;-73
2023/04/11 09:51:47;;;;;;;;;1.33;0.00;;;;;15.03;100.00;101544.38;5028820;28;45518;-74
2023/04/11 09:54:14;;;;;;;;;4.00;1.00;;;;;15.07;100.00;101545.28;5014093;28;58410;-74
2023/04/11 09:56:41;;;;;;;;;2.00;0.00;;;;;15.07;100.00;101543.50;5041010;28;47695;-74
2023/04/11 09:59:06;;;;;;;;;2.00;1.00;;;;;15.17;100.00;101550.63;5034472;28;45602;-73
2023/04/11 10:01:32;;;;;;;;;6.00;1.00;;;;;15.24;100.00;101540.03;5033593;28;67057;-73
2023/04/11 10:03:59;;;;;;;;;4.00;1.00;;;;;15.34;100.00;101539.16;5034348;28;45516;-73
2023/04/11 10:06:49;;;;;;;;;4.00;1.00;;;;;15.39;100.00;101548.94;5015567;28;47726;-73
2023/04/11 10:09:15;;;;;;;;;2.67;1.00;;;;;15.40;100.00;101542.75;5017447;28;45815;-72
2023/04/11 10:11:42;;;;;;;;;2.00;0.00;;;;;15.43;100.00;101547.16;5032291;28;45447;-73
2023/04/11 10:14:07;;;;;;;;;0.33;0.00;;;;;15.41;100.00;101546.28;5034795;28;45644;-72
2023/04/11 10:16:33;;;;;;;;;2.67;1.00;;;;;15.45;100.00;101545.41;5034892;28;46909;-72
2023/04/11 10:19:03;;;;;;;;;2.00;1.00;;;;;15.49;100.00;101533.88;5035830;28;45415;-71
2023/04/11 10:21:35;;;;;;;;;3.00;0.00;;;;;15.56;100.00;101533.00;5035478;28;45387;-71
2023/04/11 10:24:10;;;;;;;;;5.00;0.67;;;;;15.69;100.00;101525.94;5129938;22;45568;-69
2023/04/11 10:26:46;;;;;;;;;1.00;1.00;;;;;15.80;100.00;101515.31;5015838;28;46639;-71
2023/04/11 10:29:32;;;;;;;;;2.00;0.00;;;;;15.87;100.00;101507.34;5019917;28;45425;-69
2023/04/11 10:32:15;;;;;;;;;1.00;1.00;;;;;15.94;100.00;101513.56;5004614;28;45635;-70
2023/04/11 10:34:49;;;;;;;;;3.67;1.00;;;;;16.01;100.00;101525.97;5016089;28;45440;-70
2023/04/11 10:37:16;;;;;;;;;1.67;1.33;;;;;16.10;100.00;101517.09;5015787;28;46568;-71
2023/04/11 10:39:47;;;;;;;;;4.00;1.00;;;;;16.19;100.00;101515.31;5025668;28;45612;-71
2023/04/11 10:42:30;;;;;;;;;3.33;1.00;;;;;16.30;100.00;101501.06;5014422;28;45369;-70
2023/04/11 10:45:23;;;;;;;;;0.00;0.00;;;;;16.38;100.00;101491.28;5016910;28;45661;-72
2023/04/11 10:47:55;;;;;;;;;2.00;0.00;;;;;16.40;100.00;101494.81;5014000;28;45599;-71
2023/04/11 10:50:26;;;;;;;;;4.00;1.00;;;;;16.51;100.00;101503.69;5014958;28;45519;-70
2023/04/11 10:52:56;;;;;;;;;6.00;1.00;;;;;16.60;100.00;101501.00;5012518;28;45483;-70
2023/04/11 10:55:22;;;;;;;;;3.33;0.67;;;;;16.69;100.00;101503.63;5014580;28;45840;-70
2023/04/11 10:58:08;;;;;;;;;1.00;1.00;;;;;16.73;100.00;101499.22;5014861;28;47415;-70
2023/04/11 11:00:49;;;;;;;;;2.00;1.00;;;;;16.76;100.00;101485.84;5014638;28;45483;-70
2023/04/11 11:03:18;;;;;;;;;3.00;0.00;;;;;16.80;100.00;101490.28;5015070;28;45612;-70
2023/04/11 11:05:44;;;;;;;;;0.00;0.00;;;;;16.82;100.00;101467.16;4996194;28;45556;-70
2023/04/11 11:08:10;;;;;;;;;4.00;1.00;;;;;16.82;100.00;101463.59;4989636;28;46063;-71
2023/04/11 11:10:37;;;;;;;;;7.00;2.00;;;;;16.85;100.00;101455.59;5015261;28;45425;-70
2023/04/11 11:13:03;;;;;;;;;4.33;1.00;;;;;16.84;100.00;101453.84;5015544;28;45411;-70
2023/04/11 11:15:29;;;;;;;;;1.00;1.00;;;;;16.92;100.00;101450.22;5018173;28;45618;-70